Isle of Gigha, United Kingdom
Current Conditions -  °F | °C
As of 2:50 PM on Wednesday 22 Oct 2014 (Local Time) from EGEC Reporting Station
Broken Clouds Broken Clouds  
Wind Chill: 54°   Ceiling: 4800
Heat Index: 54°   Visibility: 6mi
Dew Point: 50°   Wind: 22mph
Humidity: 88%   Direction: 260°W
Pressure: 30.03"   Gusts: NA
Location:  55.68°N, 5.74°W
Report Text: EGEC 221350Z 26019KT 9999 SCT014 BKN048 12/10 Q1017
Loading
Personal Weather Stations






























Interactive Weather Map
Tropical Storm Tracking
New forecast layout! Learn more

10-Day Weather Forecast

Advertisements
Track Severe Weather on mobile